Time;durP1;ratioP1;P1;durP2;ratioP2;P2;SDS_P1;SDS_P2;PMS_P1;PMS_P2;Temp;Humidity;BMP_temperature;BMP_pressure;BME280_temperature;BME280_humidity;BME280_pressure;Samples;Min_cycle;Max_cycle;Signal;HPM_P1;HPM_P2
2022/04/13 00:00:05;;;;;;;;;5.00;4.00;;;;;17.91;49.15;101215.09;5071229;28;8806;-71
2022/04/13 00:02:30;;;;;;;;;5.00;4.50;;;;;17.92;49.12;101232.69;5071597;28;9703;-71
2022/04/13 00:04:55;;;;;;;;;3.00;3.00;;;;;17.93;49.50;101223.88;5071806;28;9695;-70
2022/04/13 00:07:24;;;;;;;;;4.50;3.00;;;;;17.92;49.12;101223.91;5071537;28;8795;-71
2022/04/13 00:09:49;;;;;;;;;6.00;5.00;;;;;17.94;49.21;101230.94;5072198;28;8766;-71
2022/04/13 00:12:15;;;;;;;;;4.50;3.50;;;;;17.92;49.26;101227.41;5071248;28;9603;-71
2022/04/13 00:14:40;;;;;;;;;6.00;4.75;;;;;17.92;49.24;101230.03;5072569;28;8776;-71
2022/04/13 00:17:09;;;;;;;;;2.25;2.25;;;;;17.91;49.28;101222.13;5071948;28;8842;-70
2022/04/13 00:19:34;;;;;;;;;4.75;3.75;;;;;17.92;49.30;101221.25;5071221;28;8900;-70
2022/04/13 00:21:59;;;;;;;;;3.00;3.00;;;;;17.91;49.43;101228.31;5072156;28;9558;-70
2022/04/13 00:24:27;;;;;;;;;4.00;4.00;;;;;17.89;49.18;101216.84;5072411;28;9163;-70
2022/04/13 00:26:53;;;;;;;;;4.25;3.50;;;;;17.90;49.40;101221.25;5071509;28;8764;-71
2022/04/13 00:29:21;;;;;;;;;4.00;4.00;;;;;17.91;49.40;101222.13;5072243;28;9620;-71
2022/04/13 00:31:46;;;;;;;;;3.50;3.50;;;;;17.90;49.39;101217.72;5071990;28;8833;-71
2022/04/13 00:34:12;;;;;;;;;2.50;2.00;;;;;17.90;49.59;101221.25;5071303;28;10321;-70
2022/04/13 00:36:37;;;;;;;;;2.75;2.75;;;;;17.89;49.61;101222.13;5072148;28;8795;-70
2022/04/13 00:39:02;;;;;;;;;2.75;2.75;;;;;17.87;49.39;101229.19;5071455;28;9303;-71
2022/04/13 00:41:28;;;;;;;;;2.50;2.50;;;;;17.86;49.49;101225.66;5071065;28;8853;-71
2022/04/13 00:44:07;;;;;;;;;3.00;3.00;;;;;17.88;49.67;101226.53;5071747;28;8787;-71
2022/04/13 00:46:33;;;;;;;;;3.00;3.00;;;;;17.88;49.64;101228.31;5072070;28;8782;-71
2022/04/13 00:49:00;;;;;;;;;3.25;3.00;;;;;17.89;49.98;101237.97;5070869;28;9492;-70
2022/04/13 00:51:26;;;;;;;;;3.75;3.75;;;;;17.88;49.97;101235.38;5071968;28;9517;-71
2022/04/13 00:53:52;;;;;;;;;3.50;2.00;;;;;17.87;49.68;101237.13;5071127;28;9465;-70
2022/04/13 00:56:23;;;;;;;;;3.00;2.00;;;;;17.86;49.75;101241.53;5070996;28;9485;-70
2022/04/13 00:58:52;;;;;;;;;3.50;3.50;;;;;17.88;49.77;101243.28;5071221;28;8760;-70
2022/04/13 01:01:18;;;;;;;;;3.75;3.75;;;;;17.87;50.02;101252.97;5071221;28;9567;-70
2022/04/13 01:03:44;;;;;;;;;4.75;3.75;;;;;17.87;49.88;101245.03;5070570;28;9634;-70
2022/04/13 01:06:10;;;;;;;;;4.00;4.00;;;;;17.86;49.85;101243.28;5071353;28;8767;-70
2022/04/13 01:08:40;;;;;;;;;3.25;3.25;;;;;17.85;50.14;101242.38;5070406;28;9253;-71
2022/04/13 01:11:06;;;;;;;;;4.00;4.00;;;;;17.84;49.86;101245.94;5071095;28;9478;-70
2022/04/13 01:13:32;;;;;;;;;1.25;1.25;;;;;17.86;49.79;101251.19;5071011;28;9485;-70
2022/04/13 01:15:57;;;;;;;;;3.00;3.00;;;;;17.85;50.13;101250.31;5069812;28;9642;-70
2022/04/13 01:18:22;;;;;;;;;1.75;1.75;;;;;17.85;49.82;101252.06;5071235;28;8764;-70
2022/04/13 01:20:51;;;;;;;;;4.00;4.00;;;;;17.86;50.26;101254.72;5071194;28;8836;-70
2022/04/13 01:23:16;;;;;;;;;3.00;2.50;;;;;17.84;50.14;101259.16;5069517;28;8799;-70
2022/04/13 01:25:49;;;;;;;;;3.00;3.00;;;;;17.85;50.34;101258.25;5070772;28;10028;-71
2022/04/13 01:28:15;;;;;;;;;2.50;2.50;;;;;17.85;50.01;101257.34;5071034;28;8780;-71
2022/04/13 01:30:40;;;;;;;;;3.00;3.00;;;;;17.81;50.35;101251.19;5070329;28;9489;-71
2022/04/13 01:33:06;;;;;;;;;2.00;2.00;;;;;17.84;50.03;101264.44;5070524;28;10326;-71
2022/04/13 01:35:31;;;;;;;;;3.00;3.00;;;;;17.84;50.39;101260.91;5072502;28;8756;-71
2022/04/13 01:37:57;;;;;;;;;2.00;2.00;;;;;17.84;50.11;101258.25;5070956;28;8775;-70
2022/04/13 01:40:22;;;;;;;;;0.00;0.00;;;;;17.85;50.33;101262.63;5070917;28;8776;-71
2022/04/13 01:42:49;;;;;;;;;3.00;3.00;;;;;17.82;50.26;101266.19;5070786;28;8826;-71
2022/04/13 01:45:19;;;;;;;;;4.50;3.00;;;;;17.81;50.25;101253.84;5070555;28;8783;-71
2022/04/13 01:47:51;;;;;;;;;5.00;4.00;;;;;17.85;50.23;101268.81;5071065;28;10270;-72
2022/04/13 01:50:18;;;;;;;;;3.75;3.00;;;;;17.81;50.38;101272.34;5071510;28;9427;-72
2022/04/13 01:52:45;;;;;;;;;4.75;4.75;;;;;17.82;50.50;101267.94;5071001;28;9457;-71
2022/04/13 01:55:10;;;;;;;;;2.50;2.50;;;;;17.83;50.62;101267.94;5070805;28;9463;-71
2022/04/13 01:57:37;;;;;;;;;3.25;3.25;;;;;17.84;50.50;101272.34;5070482;28;9678;-71
2022/04/13 02:00:04;;;;;;;;;2.50;2.50;;;;;17.82;50.49;101273.22;5069709;28;8886;-71
2022/04/13 02:02:29;;;;;;;;;2.50;2.50;;;;;17.81;50.46;101274.97;5070153;28;9477;-70
2022/04/13 02:04:55;;;;;;;;;4.25;2.75;;;;;17.82;50.49;101275.84;5069327;28;9316;-70
2022/04/13 02:07:20;;;;;;;;;3.00;3.00;;;;;17.83;50.75;101272.34;5069979;28;8803;-70
2022/04/13 02:09:45;;;;;;;;;3.50;3.00;;;;;17.83;50.48;101277.63;5070164;28;8788;-70
2022/04/13 02:12:10;;;;;;;;;2.00;2.00;;;;;17.82;50.77;101271.47;5069144;28;8784;-70
2022/04/13 02:14:36;;;;;;;;;4.75;3.00;;;;;17.83;50.63;101278.50;5070302;28;8819;-70
2022/04/13 02:17:01;;;;;;;;;3.00;3.00;;;;;17.81;50.60;101274.97;5069712;28;8865;-70
2022/04/13 02:19:26;;;;;;;;;2.75;2.75;;;;;17.83;50.57;101285.53;5069569;28;8795;-71
2022/04/13 02:21:51;;;;;;;;;2.75;2.75;;;;;17.81;50.42;101288.19;5069828;28;8818;-70
2022/04/13 02:24:17;;;;;;;;;3.25;2.50;;;;;17.80;50.70;101280.28;5070087;28;8767;-70
2022/04/13 02:26:42;;;;;;;;;5.00;4.75;;;;;17.81;50.84;101292.56;5069059;28;8836;-70
2022/04/13 02:29:07;;;;;;;;;2.50;2.25;;;;;17.80;50.60;101280.28;5070025;28;8882;-70
2022/04/13 02:31:33;;;;;;;;;2.00;2.00;;;;;17.80;50.80;101294.38;5069949;28;8775;-71
2022/04/13 02:33:58;;;;;;;;;2.00;2.00;;;;;17.81;50.58;101289.94;5068622;28;8810;-71
2022/04/13 02:36:24;;;;;;;;;3.25;3.00;;;;;17.79;50.80;101289.97;5069354;28;8792;-70
2022/04/13 02:38:49;;;;;;;;;2.25;2.25;;;;;17.81;50.61;101292.56;5069796;28;8760;-70
2022/04/13 02:41:14;;;;;;;;;3.00;3.00;;;;;17.80;50.58;101286.44;5068491;28;8808;-70
2022/04/13 02:43:40;;;;;;;;;3.00;3.00;;;;;17.80;50.55;101290.84;5070135;28;8759;-70
2022/04/13 02:46:06;;;;;;;;;5.00;3.00;;;;;17.79;51.00;101289.06;5069566;28;8779;-70
2022/04/13 02:48:31;;;;;;;;;4.00;4.00;;;;;17.81;50.85;101301.38;5069260;28;8922;-70
2022/04/13 02:50:56;;;;;;;;;2.25;2.25;;;;;17.80;50.62;101290.84;5069401;28;8768;-70
2022/04/13 02:53:23;;;;;;;;;3.00;3.00;;;;;17.79;50.45;101295.25;5069648;28;8795;-70
2022/04/13 02:55:49;;;;;;;;;2.75;2.75;;;;;17.80;50.66;101293.47;5068727;28;9503;-70
2022/04/13 02:58:14;;;;;;;;;2.50;2.50;;;;;17.79;50.69;101292.59;5069891;28;9658;-70
2022/04/13 03:00:39;;;;;;;;;2.00;2.00;;;;;17.79;50.74;101297.00;5069819;28;8776;-70
2022/04/13 03:03:05;;;;;;;;;2.75;2.75;;;;;17.79;50.80;101300.53;5068834;28;8843;-69
2022/04/13 03:05:30;;;;;;;;;2.00;2.00;;;;;17.77;51.01;101302.25;5069513;28;8768;-70
2022/04/13 03:07:56;;;;;;;;;5.00;3.00;;;;;17.78;50.56;101296.09;5069179;28;8808;-70
2022/04/13 03:10:24;;;;;;;;;5.00;4.00;;;;;17.77;50.66;101299.63;5068823;28;8790;-69
2022/04/13 03:12:49;;;;;;;;;2.75;2.75;;;;;17.77;50.58;101299.63;5069313;28;8876;-70
2022/04/13 03:15:14;;;;;;;;;3.00;3.00;;;;;17.78;50.77;101313.72;5068904;28;9505;-70
2022/04/13 03:17:40;;;;;;;;;2.75;2.75;;;;;17.76;50.81;101316.38;5069419;28;8811;-70
2022/04/13 03:20:07;;;;;;;;;3.00;3.00;;;;;17.78;51.13;101316.34;5069048;28;8807;-70
2022/04/13 03:22:32;;;;;;;;;3.00;3.00;;;;;17.77;50.52;101326.03;5068652;28;8822;-70
2022/04/13 03:25:01;;;;;;;;;2.25;2.25;;;;;17.79;50.62;101328.69;5069325;28;9578;-69
2022/04/13 03:27:26;;;;;;;;;2.50;2.50;;;;;17.77;50.67;101317.25;5069627;28;8764;-70
2022/04/13 03:29:51;;;;;;;;;5.00;5.00;;;;;17.77;50.95;101319.91;5068418;28;9455;-70
2022/04/13 03:32:16;;;;;;;;;3.00;3.00;;;;;17.76;50.63;101320.78;5069349;28;9503;-70
2022/04/13 03:34:42;;;;;;;;;3.25;3.25;;;;;17.76;50.82;101324.28;5069113;28;8822;-70
2022/04/13 03:37:07;;;;;;;;;3.00;3.00;;;;;17.76;50.76;101326.06;5068276;28;8845;-70
2022/04/13 03:39:32;;;;;;;;;2.50;2.50;;;;;17.77;51.16;101336.59;5069016;28;8799;-70
2022/04/13 03:41:58;;;;;;;;;2.00;2.00;;;;;17.75;51.03;101335.72;5068766;28;8815;-70
2022/04/13 03:44:23;;;;;;;;;2.00;2.00;;;;;17.75;51.06;101346.28;5068636;28;8799;-70
2022/04/13 03:46:49;;;;;;;;;2.75;2.75;;;;;17.75;51.00;101356.88;5069597;28;8818;-69
2022/04/13 03:49:14;;;;;;;;;2.75;2.75;;;;;17.75;50.97;101348.06;5072657;28;8787;-70
2022/04/13 03:51:40;;;;;;;;;3.75;3.25;;;;;17.75;50.78;101351.59;5072125;28;8795;-70
2022/04/13 03:54:06;;;;;;;;;2.25;2.25;;;;;17.75;50.82;101343.66;5072402;28;8771;-69
2022/04/13 03:56:31;;;;;;;;;4.00;2.75;;;;;17.76;50.93;101345.44;5072824;28;8796;-70
2022/04/13 03:58:59;;;;;;;;;3.00;3.00;;;;;17.74;51.04;101338.38;5071949;28;8768;-70
2022/04/13 04:01:25;;;;;;;;;4.25;4.25;;;;;17.74;50.97;101349.81;5072621;28;8835;-70
2022/04/13 04:03:50;;;;;;;;;4.00;3.75;;;;;17.74;50.92;101343.66;5072474;28;9701;-71
2022/04/13 04:06:16;;;;;;;;;3.25;3.25;;;;;17.75;51.18;101353.34;5071575;28;9529;-70
2022/04/13 04:08:41;;;;;;;;;3.00;2.25;;;;;17.74;50.89;101352.44;5072532;28;8790;-71
2022/04/13 04:11:07;;;;;;;;;3.00;3.00;;;;;17.75;51.17;101350.69;5072247;28;8782;-70
2022/04/13 04:13:32;;;;;;;;;2.25;2.25;;;;;17.76;51.09;101356.00;5071527;28;8806;-70
2022/04/13 04:15:59;;;;;;;;;4.00;3.00;;;;;17.74;51.19;101363.00;5071919;28;9495;-71
2022/04/13 04:18:24;;;;;;;;;2.50;2.50;;;;;17.74;51.13;101364.78;5072260;28;8803;-71
2022/04/13 04:20:49;;;;;;;;;3.00;2.25;;;;;17.74;51.02;101372.69;5072078;28;9401;-71
2022/04/13 04:23:18;;;;;;;;;3.25;3.25;;;;;17.74;51.30;101368.28;5072054;28;8884;-70
2022/04/13 04:25:46;;;;;;;;;3.50;3.00;;;;;17.74;51.49;101365.66;5070918;28;8834;-71
2022/04/13 04:28:11;;;;;;;;;3.50;3.50;;;;;17.73;51.11;101360.41;5072189;28;9526;-70
2022/04/13 04:30:40;;;;;;;;;2.00;2.00;;;;;17.73;51.32;101366.53;5072189;28;9459;-70
2022/04/13 04:33:06;;;;;;;;;2.00;2.00;;;;;17.73;51.19;101369.16;5073857;28;8799;-70
2022/04/13 04:35:32;;;;;;;;;3.75;2.50;;;;;17.73;51.44;101381.53;5072556;28;9416;-70
2022/04/13 04:37:59;;;;;;;;;4.00;4.00;;;;;17.73;51.39;101386.81;5071943;28;8795;-70
2022/04/13 04:40:25;;;;;;;;;4.25;3.00;;;;;17.73;51.64;101387.66;5070604;28;9624;-70
2022/04/13 04:42:51;;;;;;;;;3.50;3.50;;;;;17.71;51.38;101392.06;5071648;28;9608;-70
2022/04/13 04:45:19;;;;;;;;;4.50;3.00;;;;;17.72;51.32;101399.13;5072232;28;9705;-71
2022/04/13 04:47:45;;;;;;;;;2.75;2.75;;;;;17.72;51.58;101406.16;5073558;28;9561;-70
2022/04/13 04:50:10;;;;;;;;;3.50;3.50;;;;;17.72;51.51;101403.53;5071780;28;9478;-70
2022/04/13 04:52:43;;;;;;;;;3.00;3.00;;;;;17.71;51.19;101405.28;5071616;28;9556;-70
2022/04/13 04:55:13;;;;;;;;;2.75;2.00;;;;;17.71;51.42;101414.94;5070963;28;8971;-71
2022/04/13 04:57:39;;;;;;;;;1.50;1.50;;;;;17.70;51.27;101427.28;5071538;28;9473;-71
2022/04/13 05:00:07;;;;;;;;;4.00;4.00;;;;;17.71;51.24;101423.75;5071707;28;9468;-70
2022/04/13 05:02:33;;;;;;;;;6.00;5.00;;;;;17.70;51.40;101415.81;5070440;28;8803;-70
2022/04/13 05:04:58;;;;;;;;;4.50;4.50;;;;;17.68;51.47;101417.59;5070831;28;9682;-70
2022/04/13 05:07:23;;;;;;;;;2.50;2.00;;;;;17.71;51.27;101430.78;5071170;28;8799;-71
2022/04/13 05:09:49;;;;;;;;;3.25;3.00;;;;;17.71;50.99;101428.16;5070506;28;8775;-71
2022/04/13 05:12:14;;;;;;;;;2.50;2.50;;;;;17.68;51.26;101426.41;5071311;28;8784;-70
2022/04/13 05:14:40;;;;;;;;;3.00;3.00;;;;;17.69;51.48;101432.56;5070916;28;8804;-71
2022/04/13 05:17:08;;;;;;;;;3.50;3.00;;;;;17.68;51.14;101433.44;5070322;28;8827;-71
2022/04/13 05:19:34;;;;;;;;;2.75;2.00;;;;;17.71;52.15;101436.97;5071347;28;8763;-70
2022/04/13 05:21:59;;;;;;;;;4.00;2.75;;;;;17.75;53.67;101430.81;5070294;28;9707;-70
2022/04/13 05:24:24;;;;;;;;;3.75;2.00;;;;;17.88;55.90;101443.13;5071322;28;8784;-71
2022/04/13 05:26:50;;;;;;;;;3.00;3.00;;;;;18.01;53.54;101451.09;5070926;28;8783;-72
2022/04/13 05:29:15;;;;;;;;;4.00;4.00;;;;;18.07;53.28;101446.69;5070625;28;8890;-70
2022/04/13 05:31:40;;;;;;;;;5.25;5.00;;;;;18.19;57.84;101459.03;5071109;28;8783;-72
2022/04/13 05:34:05;;;;;;;;;4.50;3.00;;;;;18.28;54.98;101452.00;5070909;28;8811;-71
2022/04/13 05:36:31;;;;;;;;;2.50;2.50;;;;;18.37;55.54;101458.16;5070303;28;8802;-70
2022/04/13 05:38:56;;;;;;;;;3.00;3.00;;;;;18.42;57.16;101459.91;5070791;28;8842;-71
2022/04/13 05:41:21;;;;;;;;;4.25;3.00;;;;;18.47;58.15;101459.91;5070664;28;8873;-70
2022/04/13 05:43:46;;;;;;;;;3.75;3.75;;;;;18.44;60.23;101459.91;5069739;28;8779;-69
2022/04/13 05:46:18;;;;;;;;;4.25;3.50;;;;;18.42;61.81;101465.19;5070926;28;9328;-69
2022/04/13 05:48:43;;;;;;;;;6.00;4.00;;;;;18.47;63.54;101463.44;5070365;28;8767;-71
2022/04/13 05:51:09;;;;;;;;;5.25;4.25;;;;;18.62;63.19;101463.44;5069993;28;9522;-68
2022/04/13 05:53:35;;;;;;;;;7.50;7.00;;;;;18.48;62.84;101466.97;5070500;28;8783;-69
2022/04/13 05:56:00;;;;;;;;;8.75;8.75;;;;;18.37;62.70;101474.88;5070316;28;8767;-67
2022/04/13 05:58:26;;;;;;;;;9.50;6.25;;;;;18.30;63.74;101479.28;5069597;28;9832;-68
2022/04/13 06:00:53;;;;;;;;;5.50;5.50;;;;;18.26;63.75;101482.81;5070127;28;8780;-68
2022/04/13 06:03:18;;;;;;;;;5.75;5.25;;;;;18.24;64.41;101478.41;5070404;28;9589;-69
2022/04/13 06:05:45;;;;;;;;;5.75;5.75;;;;;18.24;63.41;101491.63;5069359;28;9636;-69
2022/04/13 06:08:10;;;;;;;;;10.00;7.00;;;;;18.23;63.32;101489.88;5070026;28;8900;-68
2022/04/13 06:10:35;;;;;;;;;5.00;3.00;;;;;18.23;62.47;101503.06;5069669;28;9749;-68
2022/04/13 06:13:00;;;;;;;;;4.75;4.00;;;;;18.23;62.29;101505.72;5068848;28;8779;-68
2022/04/13 06:15:28;;;;;;;;;4.25;3.75;;;;;18.22;62.43;101501.34;5070371;28;8806;-68
2022/04/13 06:17:53;;;;;;;;;7.25;6.00;;;;;18.23;61.76;101500.44;5069530;28;8797;-68
2022/04/13 06:20:19;;;;;;;;;1.25;1.25;;;;;18.21;61.09;101511.03;5069157;28;9446;-68
2022/04/13 06:22:44;;;;;;;;;3.00;3.00;;;;;18.19;61.30;101504.84;5069640;28;8815;-67
2022/04/13 06:25:12;;;;;;;;;6.25;4.00;;;;;18.21;61.20;101507.50;5069382;28;8876;-69
2022/04/13 06:27:38;;;;;;;;;5.50;5.50;;;;;18.21;60.65;101507.50;5070093;28;8783;-70
2022/04/13 06:30:04;;;;;;;;;6.75;5.50;;;;;18.22;60.58;101515.41;5068972;28;9617;-69
2022/04/13 06:32:34;;;;;;;;;2.75;2.75;;;;;18.23;60.30;101516.28;5064368;28;10210;-68
2022/04/13 06:35:00;;;;;;;;;4.50;3.00;;;;;18.22;59.92;101523.34;5069412;28;9953;-68
2022/04/13 06:37:26;;;;;;;;;3.75;2.25;;;;;18.21;60.47;101521.59;5069760;28;9517;-69
2022/04/13 06:39:52;;;;;;;;;2.00;2.00;;;;;18.23;59.92;101527.75;5068945;28;10891;-68
2022/04/13 06:42:17;;;;;;;;;4.00;4.00;;;;;18.23;59.93;101538.31;5069360;28;8818;-68
2022/04/13 06:44:42;;;;;;;;;4.50;2.75;;;;;18.23;59.06;101554.19;5069369;28;8767;-68
2022/04/13 06:47:08;;;;;;;;;3.00;3.00;;;;;18.37;58.99;101553.34;5068269;28;8778;-68
2022/04/13 06:49:33;;;;;;;;;3.25;3.00;;;;;18.23;59.19;101554.19;5069445;28;8806;-68
2022/04/13 06:51:58;;;;;;;;;4.25;3.50;;;;;18.22;59.19;101559.50;5060124;28;8800;-70
2022/04/13 06:54:24;;;;;;;;;6.00;4.00;;;;;18.21;58.57;101560.34;5068494;28;8790;-70
2022/04/13 06:56:49;;;;;;;;;2.00;2.00;;;;;18.22;58.86;101564.78;5065707;28;8809;-69
2022/04/13 06:59:14;;;;;;;;;3.00;2.25;;;;;18.23;58.79;101571.81;5064662;28;9540;-69
2022/04/13 07:01:40;;;;;;;;;4.00;3.25;;;;;18.25;58.55;101576.22;5068675;28;8847;-68
2022/04/13 07:04:05;;;;;;;;;2.00;2.00;;;;;18.21;58.68;101570.94;5068370;28;8858;-68
2022/04/13 07:06:30;;;;;;;;;3.50;3.00;;;;;18.22;58.37;101575.34;5068041;28;8826;-68
2022/04/13 07:08:56;;;;;;;;;2.00;2.00;;;;;18.21;58.30;101577.09;5066859;28;8825;-69
2022/04/13 07:11:21;;;;;;;;;2.00;2.00;;;;;18.23;58.84;101582.38;5068225;28;8829;-69
2022/04/13 07:13:46;;;;;;;;;4.00;3.50;;;;;18.22;58.77;101581.50;5068733;28;8961;-68
2022/04/13 07:16:11;;;;;;;;;3.00;3.00;;;;;18.23;58.43;101583.25;5066899;28;8869;-68
2022/04/13 07:18:37;;;;;;;;;3.75;3.75;;;;;18.25;58.09;101592.09;5069083;28;8819;-69
2022/04/13 07:21:02;;;;;;;;;2.50;2.50;;;;;18.27;58.45;101594.72;5070044;28;8816;-69
2022/04/13 07:23:28;;;;;;;;;2.75;2.00;;;;;18.26;58.09;101593.84;5071912;28;8819;-69
2022/04/13 07:25:53;;;;;;;;;3.00;3.00;;;;;18.25;58.11;101592.09;5072660;28;8898;-69
2022/04/13 07:28:20;;;;;;;;;3.50;2.75;;;;;18.23;57.96;101592.94;5071102;28;8826;-68
2022/04/13 07:30:45;;;;;;;;;4.00;2.75;;;;;18.21;58.16;101595.59;5076497;28;8794;-69
2022/04/13 07:33:10;;;;;;;;;2.00;2.00;;;;;18.23;58.25;101600.88;5072403;28;9424;-68
2022/04/13 07:35:35;;;;;;;;;3.25;3.00;;;;;18.25;58.06;101605.31;5072136;28;8823;-69
2022/04/13 07:38:01;;;;;;;;;3.00;3.00;;;;;18.23;58.04;101609.69;5071278;28;9700;-69
2022/04/13 07:40:26;;;;;;;;;2.75;2.75;;;;;18.25;57.75;101609.72;5071784;28;8838;-69
2022/04/13 07:42:51;;;;;;;;;2.25;2.25;;;;;18.23;57.92;101617.63;5070985;28;8847;-70
2022/04/13 07:45:17;;;;;;;;;3.75;3.25;;;;;18.26;57.88;101627.31;5074128;28;8803;-69
2022/04/13 07:47:42;;;;;;;;;3.50;3.00;;;;;18.23;57.75;101622.91;5071429;28;8851;-70
2022/04/13 07:50:14;;;;;;;;;3.00;3.00;;;;;18.23;57.71;101629.94;5071443;28;8819;-69
2022/04/13 07:52:41;;;;;;;;;2.00;1.75;;;;;18.23;57.96;101633.47;5072193;28;8891;-70
2022/04/13 07:55:09;;;;;;;;;3.00;2.00;;;;;18.25;57.62;101633.50;5071780;28;9564;-69
2022/04/13 07:57:35;;;;;;;;;2.75;2.75;;;;;18.23;57.86;101632.59;5070333;28;9547;-69
2022/04/13 08:00:01;;;;;;;;;2.00;2.00;;;;;18.19;58.63;101636.09;5071701;28;9617;-69
2022/04/13 08:02:27;;;;;;;;;5.00;3.50;;;;;18.16;57.96;101641.38;5071726;28;12176;-68
2022/04/13 08:04:55;;;;;;;;;4.25;4.25;;;;;18.18;57.59;101645.78;5069081;28;8828;-71
2022/04/13 08:07:21;;;;;;;;;4.00;4.00;;;;;18.38;56.90;101644.97;5071153;28;9654;-70
2022/04/13 08:09:47;;;;;;;;;6.00;5.00;;;;;18.32;57.31;101651.13;5072016;28;9614;-69
2022/04/13 08:12:13;;;;;;;;;3.50;3.50;;;;;18.27;57.03;101651.13;5071442;28;9644;-70
2022/04/13 08:14:38;;;;;;;;;2.50;2.50;;;;;18.28;57.05;101650.25;5072005;28;8802;-70
2022/04/13 08:17:05;;;;;;;;;6.00;6.00;;;;;18.34;57.01;101646.72;5071762;28;10186;-69
2022/04/13 08:19:31;;;;;;;;;3.00;3.00;;;;;18.26;57.14;101646.69;5048714;28;8814;-69
2022/04/13 08:21:56;;;;;;;;;6.00;4.00;;;;;18.25;57.23;101644.06;5071834;28;9669;-68
2022/04/13 08:24:22;;;;;;;;;3.00;3.00;;;;;18.23;57.24;101644.06;5072443;28;10357;-68
2022/04/13 08:26:47;;;;;;;;;5.00;3.25;;;;;18.25;57.22;101654.66;5069837;28;8893;-68
2022/04/13 08:29:12;;;;;;;;;4.00;4.00;;;;;18.23;56.88;101659.03;5071900;28;8792;-68
2022/04/13 08:31:38;;;;;;;;;4.75;4.00;;;;;18.23;57.16;101662.56;5070134;28;8792;-68
2022/04/13 08:34:03;;;;;;;;;4.00;3.00;;;;;18.23;57.20;101664.31;5070640;28;8807;-69
2022/04/13 08:36:28;;;;;;;;;5.75;4.00;;;;;18.20;57.16;101667.84;5069315;28;8811;-69
2022/04/13 08:38:53;;;;;;;;;4.00;4.00;;;;;18.22;57.13;101668.72;5069174;28;8795;-69
2022/04/13 08:41:33;;;;;;;;;4.50;4.50;;;;;18.23;57.21;101670.50;5071064;28;8811;-67
2022/04/13 08:44:04;;;;;;;;;3.25;3.00;;;;;18.25;57.01;101678.44;5063684;28;8932;-69
2022/04/13 08:46:31;;;;;;;;;4.25;3.00;;;;;18.28;56.81;101668.75;5068871;28;9612;-69
2022/04/13 08:48:57;;;;;;;;;2.75;2.75;;;;;18.25;56.90;101667.88;5070248;28;9521;-69
2022/04/13 08:51:24;;;;;;;;;3.00;3.00;;;;;18.35;56.86;101670.53;5070280;28;9531;-70
2022/04/13 08:54:07;;;;;;;;;4.25;4.00;;;;;18.55;56.30;101661.81;5070134;28;8933;-69
2022/04/13 08:56:35;;;;;;;;;5.00;5.00;;;;;18.60;55.97;101660.91;5069565;28;9418;-69
2022/04/13 08:59:14;;;;;;;;;4.00;4.00;;;;;18.67;55.94;101662.69;5070535;28;9544;-69
2022/04/13 09:01:53;;;;;;;;;4.00;3.00;;;;;18.62;55.76;101661.81;5070040;28;9506;-69
2022/04/13 09:04:21;;;;;;;;;3.00;3.00;;;;;18.43;56.36;101673.19;5070993;28;9716;-69
2022/04/13 09:06:47;;;;;;;;;4.00;3.50;;;;;18.36;56.52;101676.72;5068554;28;9784;-70
2022/04/13 09:09:19;;;;;;;;;6.50;4.00;;;;;18.31;56.48;101681.97;5070132;28;9717;-69
2022/04/13 09:11:44;;;;;;;;;2.00;2.00;;;;;18.29;56.87;101681.09;5070233;28;8814;-68
2022/04/13 09:14:10;;;;;;;;;3.75;3.75;;;;;18.29;56.90;101693.44;5069372;28;9411;-69
2022/04/13 09:16:35;;;;;;;;;3.50;3.50;;;;;18.25;57.26;101695.19;5069153;28;9654;-69
2022/04/13 09:19:02;;;;;;;;;5.25;3.25;;;;;18.26;57.15;101696.03;5070233;28;8890;-69
2022/04/13 09:21:32;;;;;;;;;2.00;2.00;;;;;18.27;57.13;101705.75;5069095;28;8854;-69
2022/04/13 09:23:59;;;;;;;;;3.00;2.75;;;;;18.23;57.16;101710.13;5070214;28;9647;-69
2022/04/13 09:26:25;;;;;;;;;3.25;2.25;;;;;18.24;57.10;101708.38;5069082;28;10335;-69
2022/04/13 09:28:50;;;;;;;;;4.25;3.50;;;;;18.24;57.07;101718.97;5069094;28;9520;-69
2022/04/13 09:31:16;;;;;;;;;3.00;3.00;;;;;18.23;56.80;101723.34;5070258;28;9515;-69
2022/04/13 09:33:41;;;;;;;;;4.75;4.25;;;;;18.24;57.24;101724.25;5070280;28;8807;-69
2022/04/13 09:36:07;;;;;;;;;3.00;1.00;;;;;18.22;57.11;101721.59;5068636;28;8853;-69
2022/04/13 09:38:34;;;;;;;;;5.00;3.00;;;;;18.31;57.92;101723.38;5069430;28;8892;-69
2022/04/13 09:41:10;;;;;;;;;4.50;3.50;;;;;18.39;57.57;101731.34;5069911;28;8803;-69
2022/04/13 09:43:36;;;;;;;;;2.00;2.00;;;;;18.38;56.94;101727.81;5068584;28;11152;-69
2022/04/13 09:46:02;;;;;;;;;3.75;3.00;;;;;18.38;56.92;101734.88;5069081;28;9492;-68
2022/04/13 09:48:29;;;;;;;;;4.00;3.00;;;;;18.38;56.96;101735.75;5068384;28;9411;-69
2022/04/13 09:50:57;;;;;;;;;1.75;1.75;;;;;18.35;57.55;101731.34;5068995;28;9524;-68
2022/04/13 09:53:22;;;;;;;;;2.25;2.25;;;;;18.35;57.47;101741.03;5070025;28;9794;-68
2022/04/13 09:56:01;;;;;;;;;1.00;0.33;;;;;18.35;57.17;101748.97;5069806;28;9473;-69
2022/04/13 09:58:32;;;;;;;;;2.00;1.50;;;;;18.36;57.33;101750.75;5069722;28;8832;-68
2022/04/13 10:01:02;;;;;;;;;2.25;2.25;;;;;18.38;57.42;101745.44;5069384;28;9328;-68
2022/04/13 10:03:30;;;;;;;;;2.00;2.00;;;;;18.34;57.21;101750.72;5069415;28;10146;-68
2022/04/13 10:05:58;;;;;;;;;2.00;2.00;;;;;18.33;57.45;101748.09;5070462;28;9406;-67
2022/04/13 10:08:30;;;;;;;;;4.00;2.00;;;;;18.36;57.66;101753.38;5067076;28;9382;-69
2022/04/13 10:10:57;;;;;;;;;3.25;3.00;;;;;18.35;57.11;101754.25;5069583;28;9311;-69
2022/04/13 10:13:40;;;;;;;;;4.00;4.00;;;;;18.38;56.90;101764.84;5069812;28;9530;-69
2022/04/13 10:16:11;;;;;;;;;2.75;2.25;;;;;18.38;57.37;101770.13;5070246;28;9479;-69
2022/04/13 10:18:56;;;;;;;;;3.25;3.00;;;;;18.37;57.38;101770.13;5069838;28;9485;-68
2022/04/13 10:21:34;;;;;;;;;3.25;3.25;;;;;18.34;57.84;101769.22;5070308;28;9403;-69
2022/04/13 10:23:59;;;;;;;;;3.00;2.50;;;;;18.34;57.88;101768.34;5070243;28;9486;-69
2022/04/13 10:26:24;;;;;;;;;3.25;3.00;;;;;18.33;57.83;101772.75;5069976;28;9536;-69
2022/04/13 10:28:49;;;;;;;;;5.25;3.75;;;;;18.34;57.93;101771.88;5072652;28;8889;-68
2022/04/13 10:31:15;;;;;;;;;2.00;2.00;;;;;18.37;57.86;101772.78;5070653;28;8782;-70
2022/04/13 10:33:48;;;;;;;;;4.00;2.75;;;;;18.35;58.16;101768.34;5070474;28;8790;-69
2022/04/13 10:36:15;;;;;;;;;2.00;2.00;;;;;18.35;58.15;101767.47;5069923;28;8778;-69
2022/04/13 10:38:46;;;;;;;;;2.50;2.50;;;;;18.34;58.05;101771.88;5069682;28;9481;-68
2022/04/13 10:41:17;;;;;;;;;2.00;2.00;;;;;18.35;58.11;101772.75;5070000;28;9593;-70
2022/04/13 10:43:50;;;;;;;;;2.25;2.25;;;;;18.35;58.15;101783.34;5071996;28;9331;-69
2022/04/13 10:46:20;;;;;;;;;2.25;2.00;;;;;18.35;57.76;101778.03;5069774;28;9405;-69
2022/04/13 10:48:54;;;;;;;;;4.00;3.25;;;;;18.37;58.10;101775.41;5070027;28;9522;-69
2022/04/13 10:51:28;;;;;;;;;2.25;2.25;;;;;18.37;58.16;101778.06;5069984;28;9398;-69
2022/04/13 10:54:02;;;;;;;;;2.00;2.00;;;;;18.37;58.17;101780.72;5069007;28;9468;-69
2022/04/13 10:56:31;;;;;;;;;1.50;1.50;;;;;18.44;57.41;101788.69;5071819;28;9476;-70
2022/04/13 10:59:07;;;;;;;;;2.00;1.75;;;;;18.47;57.06;101788.69;5073503;28;9535;-69
2022/04/13 11:01:58;;;;;;;;;4.00;4.00;;;;;18.47;57.71;101785.16;5071151;28;9393;-70
2022/04/13 11:04:27;;;;;;;;;2.75;2.75;;;;;18.47;56.81;101785.16;5072682;28;10197;-69
2022/04/13 11:06:52;;;;;;;;;2.25;2.25;;;;;18.46;57.67;101776.31;5071450;28;9380;-70
2022/04/13 11:09:40;;;;;;;;;2.00;2.00;;;;;18.45;58.11;101784.25;5073291;28;10340;-70
2022/04/13 11:12:07;;;;;;;;;5.00;3.00;;;;;18.44;57.57;101787.78;5071604;28;8808;-70
2022/04/13 11:14:46;;;;;;;;;2.00;2.00;;;;;18.44;57.75;101779.84;5072710;28;9453;-70
2022/04/13 11:17:11;;;;;;;;;4.00;3.75;;;;;18.44;57.95;101786.03;5072759;28;9352;-70
2022/04/13 11:19:37;;;;;;;;;3.00;3.00;;;;;18.44;58.20;101786.03;5073269;28;9612;-70
2022/04/13 11:22:02;;;;;;;;;2.25;2.25;;;;;18.46;57.95;101778.09;5070497;28;8815;-70
2022/04/13 11:24:35;;;;;;;;;3.00;3.00;;;;;18.47;57.33;101788.69;5072591;28;9587;-70
2022/04/13 11:27:02;;;;;;;;;2.25;2.25;;;;;18.46;58.17;101786.91;5072594;28;8810;-69
2022/04/13 11:29:37;;;;;;;;;1.33;1.33;;;;;18.47;58.25;101793.09;5072053;28;9442;-68
2022/04/13 11:32:04;;;;;;;;;1.00;1.00;;;;;18.48;58.43;101794.88;5071260;28;10010;-69